Airfield :
LOGIN :

Register | Disclaimer

   EN    FR    IT 

 










Legend :    VFR   Marginal VFR   IFR   Intensive IFR   Very Intensive IFR
Visi :
Ceiling :
>= 8 km
>= 3000ft
5 to 8 km
1000 to 3000 ft
1500m to 5 km
500 to 1000 ft
800 to 1500m
200 to 500 ft
< 800m
< 200 ft
Symbols :   Thunderstorms  Fog  Heavy snow  Heavy precipitations  Wind > 20 kt
SIGMETs :     Misc.  Thunderstorms  Icing  Turbulence  Mountain Waves  Volcanic Ashes







- Airport Elevation : 278 ft
- IATA code : RJK


LDRI - Rijeka

CURRENT METAR :
  • 191830Z VRB02KT 9999 FEW047 BKN050 23/21 Q1012

EXPIRED METARs :
  • 191800Z VRB03KT 9999 FEW047 BKN050 24/21 Q1013
  • 191730Z VRB03KT 9999 FEW047 BKN056 26/19 Q1013
  • 191700Z 24003KT 9999 SCT056 27/17 Q1013
  • 191630Z VRB02KT 9999 FEW056 29/15 Q1013
  • 191600Z 05003KT 010V080 9999 FEW056 28/15 Q1013

TAF TAF LDRI
Valid from the 19 at 18:00 until the 20 at 18:00 UTC


191725Z 1918/2018 VRB02KT 9999 SCT040 TX25/1918Z TN17/2003Z
TEMPO 1918/2006 SHRA FEW035TCU BKN040
PROB40
TEMPO 1918/2006 4000 TSRA FEW025CB BKN035
BECMG 1921/1923 06012KT
TEMPO 2000/2012 06015G30KT
PROB40
TEMPO 2012/2018 32008KT
No reported NOTAMs for that airfield.
1 SIGMET reported for the Zagreb FIR (LDZO) :
 
Embedded thunderstorms
LDZO SIGMET 1 VALID 191745/192000 LDZA
LDZO ZAGREB FIR EMBD TS FCST WI N4525 E01510 - N4352 E01407 - N4438 E01316 - N4518 E01300 - N4533 E01325 - N4525 E01510 TOP FL390 STNR INTSF=



MET'MAP, your aeronautical weather chart ! - Copyright ORBIFLY December 2007 - Disclaimer

ORBIFLY MET'MAP TEAM :

Programming & Development : Alexandra Zaïnal
Concept & Development : Baudouin d'Aumeries
Co-Development & Prog : Marc-Olivier Méhu
Technical & hardware support : Manuel Goepfert

Contact : metmap@orbifly.com




SOURCES & CREDITS :

   NOAA